Time;durP1;ratioP1;P1;durP2;ratioP2;P2;SDS_P1;SDS_P2;PMS_P1;PMS_P2;Temp;Humidity;BMP_temperature;BMP_pressure;BME280_temperature;BME280_humidity;BME280_pressure;Samples;Min_cycle;Max_cycle;Signal;HPM_P1;HPM_P2
2020/12/08 00:00:17;;;;;;;19.77;9.63;;;6.90;99.90;;;7.80;79.40;100153.72;5086227;28;20212;-69
2020/12/08 00:02:43;;;;;;;26.85;10.90;;;6.90;99.90;;;7.77;80.03;100156.44;5069469;28;20192;-71
2020/12/08 00:05:09;;;;;;;27.70;11.70;;;6.90;99.90;;;7.73;80.18;100158.31;5086629;28;20594;-71
2020/12/08 00:07:36;;;;;;;27.77;11.15;;;6.90;99.90;;;7.72;80.79;100166.19;5070019;28;20203;-70
2020/12/08 00:10:03;;;;;;;24.30;12.30;;;6.80;99.90;;;7.72;81.07;100153.16;5086009;28;20216;-70
2020/12/08 00:12:30;;;;;;;25.92;12.73;;;6.80;99.90;;;7.70;81.03;100160.16;5086688;28;20211;-70
2020/12/08 00:14:57;;;;;;;26.10;11.45;;;6.80;99.90;;;7.70;81.37;100157.56;5072288;28;20274;-72
2020/12/08 00:17:23;;;;;;;28.48;11.20;;;6.80;99.90;;;7.72;81.54;100166.19;5073954;28;20219;-71
2020/12/08 00:19:50;;;;;;;30.20;12.02;;;6.80;99.90;;;7.70;81.40;100165.38;5073691;28;20672;-71
2020/12/08 00:22:16;;;;;;;27.52;11.98;;;6.80;99.90;;;7.66;81.76;100167.22;5076665;28;20679;-71
2020/12/08 00:24:43;;;;;;;32.42;13.48;;;6.80;99.90;;;7.65;82.11;100157.72;5076250;28;20200;-70
2020/12/08 00:27:10;;;;;;;28.48;12.90;;;6.80;99.90;;;7.62;82.10;100156.06;5078543;28;20192;-71
2020/12/08 00:29:39;;;;;;;26.42;12.15;;;6.80;99.90;;;7.64;82.25;100150.81;5086402;28;20188;-72
2020/12/08 00:32:07;;;;;;;25.65;12.23;;;6.80;99.90;;;7.64;82.36;100146.47;5090286;28;20192;-70
2020/12/08 00:34:34;;;;;;;29.02;13.10;;;6.80;99.90;;;7.65;82.47;100145.53;5092551;28;20235;-72
2020/12/08 00:37:01;;;;;;;29.30;12.80;;;6.80;99.90;;;7.67;82.54;100149.88;5090523;28;20190;-71
2020/12/08 00:39:28;;;;;;;25.65;11.93;;;6.90;99.90;;;7.68;82.65;100155.00;5073874;28;20192;-72
2020/12/08 00:41:54;;;;;;;29.92;12.98;;;6.80;99.90;;;7.71;82.94;100151.44;5074028;28;20180;-71
2020/12/08 00:44:21;;;;;;;29.55;12.73;;;6.90;99.90;;;7.72;82.79;100145.34;5073816;28;20199;-72
2020/12/08 00:46:49;;;;;;;33.03;13.63;;;6.90;99.90;;;7.71;82.86;100154.91;5086514;28;20207;-72
2020/12/08 00:49:15;;;;;;;32.30;13.95;;;6.90;99.90;;;7.68;83.15;100148.03;5073426;28;20744;-72
2020/12/08 00:51:42;;;;;;;31.33;13.57;;;6.90;99.90;;;7.67;83.09;100140.28;5072611;28;20223;-72
2020/12/08 00:54:08;;;;;;;32.13;14.32;;;6.90;99.90;;;7.67;83.22;100139.44;5089048;28;20226;-71
2020/12/08 00:56:35;;;;;;;28.95;13.60;;;6.80;99.90;;;7.68;83.35;100130.72;5071931;28;20188;-72
2020/12/08 00:59:02;;;;;;;27.73;13.52;;;6.80;99.90;;;7.65;83.54;100124.72;5073438;28;20652;-72
2020/12/08 01:01:29;;;;;;;30.75;13.57;;;6.80;99.90;;;7.64;83.60;100123.03;5072027;28;20208;-72
2020/12/08 01:04:00;;;;;;;35.47;14.27;;;6.80;99.90;;;7.65;83.48;100135.13;5088936;28;20199;-72
2020/12/08 01:06:28;;;;;;;32.55;13.85;;;6.80;99.90;;;7.65;83.57;100140.34;5073676;28;20191;-71
2020/12/08 01:08:54;;;;;;;29.08;13.82;;;6.80;99.90;;;7.67;83.79;100139.44;5088547;28;20193;-71
2020/12/08 01:11:20;;;;;;;32.20;14.00;;;6.80;99.90;;;7.67;84.04;100136.84;5089041;28;20235;-71
2020/12/08 01:13:47;;;;;;;30.40;13.25;;;6.80;99.90;;;7.65;83.84;100139.50;5071956;28;20208;-72
2020/12/08 01:16:24;;;;;;;31.30;13.40;;;6.80;99.90;;;7.65;83.63;100139.50;5073193;28;20218;-72
2020/12/08 01:18:50;;;;;;;34.83;15.55;;;6.80;99.90;;;7.64;83.62;100141.25;5073827;28;20336;-72
2020/12/08 01:21:18;;;;;;;32.65;14.40;;;6.80;99.90;;;7.68;84.00;100148.94;5071627;28;20215;-72
2020/12/08 01:23:47;;;;;;;34.38;14.43;;;6.90;99.90;;;7.68;84.01;100155.84;5088787;28;20188;-72
2020/12/08 01:26:21;;;;;;;35.15;14.07;;;6.90;99.90;;;7.68;83.67;100159.38;5072293;28;20192;-72
2020/12/08 01:28:48;;;;;;;32.58;13.88;;;6.90;99.90;;;7.68;83.78;100153.25;5071299;28;20219;-72
2020/12/08 01:31:14;;;;;;;35.80;15.50;;;6.90;99.90;;;7.74;84.02;100144.38;5071621;28;20208;-71
2020/12/08 01:33:41;;;;;;;32.53;14.63;;;6.90;99.90;;;7.77;83.79;100146.84;5072791;28;20707;-71
2020/12/08 01:36:08;;;;;;;37.08;15.23;;;7.00;99.90;;;7.79;83.64;100142.44;5071727;28;20196;-71
2020/12/08 01:38:38;;;;;;;32.50;14.73;;;7.00;99.90;;;7.80;83.42;100140.72;5071560;28;20258;-72
2020/12/08 01:41:05;;;;;;;36.28;16.15;;;7.00;99.90;;;7.84;83.44;100140.53;5088216;28;20303;-71
2020/12/08 01:43:31;;;;;;;34.83;14.52;;;7.00;99.90;;;7.85;83.14;100136.19;5072715;28;20192;-71
2020/12/08 01:45:58;;;;;;;34.80;15.48;;;7.00;99.90;;;7.85;83.45;100138.78;5072625;28;20180;-72
2020/12/08 01:48:25;;;;;;;32.47;14.80;;;7.00;99.90;;;7.83;83.30;100132.78;5087512;28;20253;-72
2020/12/08 01:50:51;;;;;;;34.63;15.48;;;7.00;99.90;;;7.85;83.12;100133.59;5071091;28;20743;-72
2020/12/08 01:53:17;;;;;;;36.05;15.75;;;7.00;99.90;;;7.82;82.92;100136.31;5072370;28;20188;-71
2020/12/08 01:55:49;;;;;;;35.72;16.30;;;7.00;99.90;;;7.79;83.01;100136.41;5071132;28;20668;-72
2020/12/08 01:58:20;;;;;;;37.42;15.68;;;7.00;99.90;;;7.77;82.96;100139.06;5087150;28;20200;-72
2020/12/08 02:00:49;;;;;;;43.35;16.88;;;7.00;99.90;;;7.74;83.26;100139.16;5070813;28;20216;-72
2020/12/08 02:03:16;;;;;;;37.60;17.05;;;7.00;99.90;;;7.73;82.98;100132.28;5072165;28;20206;-72
2020/12/08 02:05:43;;;;;;;35.92;16.15;;;6.90;99.90;;;7.75;83.17;100142.63;5087623;28;20203;-72
2020/12/08 02:08:10;;;;;;;37.15;16.75;;;6.90;99.90;;;7.75;83.02;100135.69;5071694;28;20283;-72
2020/12/08 02:10:40;;;;;;;38.78;16.45;;;6.90;99.90;;;7.73;82.74;100140.09;5087437;28;20688;-71
2020/12/08 02:13:10;;;;;;;35.90;17.50;;;6.90;99.90;;;7.70;82.83;100144.53;5087413;28;20192;-72
2020/12/08 02:15:37;;;;;;;39.08;16.75;;;6.90;99.90;;;7.68;83.10;100128.97;5070572;28;20287;-72
2020/12/08 02:18:05;;;;;;;41.92;16.65;;;6.90;99.90;;;7.63;83.05;100142.13;5070269;28;20664;-71
2020/12/08 02:20:34;;;;;;;38.30;17.17;;;6.90;99.90;;;7.58;82.97;100131.03;5087089;28;20270;-72
2020/12/08 02:23:02;;;;;;;40.22;18.27;;;6.80;99.90;;;7.56;83.01;100130.25;5070418;28;20203;-72
2020/12/08 02:25:32;;;;;;;39.10;18.70;;;6.80;99.90;;;7.53;83.28;100130.34;5070162;28;20633;-72
2020/12/08 02:28:03;;;;;;;36.20;16.77;;;6.80;99.90;;;7.51;83.19;100131.31;5070121;28;20220;-71
2020/12/08 02:30:29;;;;;;;42.35;18.35;;;6.80;99.90;;;7.49;83.34;100130.50;5071740;28;20206;-72
2020/12/08 02:32:56;;;;;;;41.25;18.13;;;6.70;99.90;;;7.49;83.38;100122.72;5070182;28;20192;-72
2020/12/08 02:35:23;;;;;;;44.88;18.10;;;6.80;99.90;;;7.51;83.36;100126.97;5087077;28;20227;-71
2020/12/08 02:37:50;;;;;;;37.40;16.92;;;6.70;99.90;;;7.50;83.37;100125.25;5087294;28;20196;-72
2020/12/08 02:40:16;;;;;;;39.72;17.20;;;6.70;99.90;;;7.51;83.58;100128.72;5070018;28;20655;-72
2020/12/08 02:42:45;;;;;;;41.85;17.73;;;6.70;99.90;;;7.51;83.60;100121.75;5087205;28;20196;-72
2020/12/08 02:45:12;;;;;;;43.67;17.73;;;6.70;99.90;;;7.52;83.48;100118.25;5071386;28;20176;-71
2020/12/08 02:47:38;;;;;;;41.90;17.95;;;6.80;99.90;;;7.52;83.39;100123.44;5086537;28;20204;-72
2020/12/08 02:50:05;;;;;;;41.17;17.70;;;6.70;99.90;;;7.54;83.09;100110.38;5069429;28;20291;-72
2020/12/08 02:52:34;;;;;;;37.22;16.60;;;6.80;99.90;;;7.55;83.19;100123.34;5085770;28;20274;-72
2020/12/08 02:55:01;;;;;;;46.70;18.08;;;6.70;99.90;;;7.56;83.18;100130.25;5069709;28;20212;-71
2020/12/08 02:57:33;;;;;;;42.38;18.52;;;6.80;99.90;;;7.56;83.06;100137.22;5086547;28;20239;-72
2020/12/08 03:00:00;;;;;;;42.90;18.90;;;6.80;99.90;;;7.53;82.92;100138.16;5069638;28;20212;-72
2020/12/08 03:02:30;;;;;;;41.85;17.85;;;6.80;99.90;;;7.51;83.32;100136.53;5069860;28;20216;-72
2020/12/08 03:04:56;;;;;;;40.35;17.83;;;6.70;99.90;;;7.51;82.93;100144.34;5069791;28;20282;-72
2020/12/08 03:07:25;;;;;;;38.63;17.27;;;6.70;99.90;;;7.51;82.87;100141.72;5069665;28;20274;-72
2020/12/08 03:09:52;;;;;;;48.75;18.15;;;6.70;99.90;;;7.51;82.95;100142.59;5068520;28;20212;-72
2020/12/08 03:12:19;;;;;;;44.17;18.40;;;6.70;99.90;;;7.50;82.88;100142.66;5069801;28;20195;-71
2020/12/08 03:14:49;;;;;;;42.45;18.17;;;6.70;99.90;;;7.52;82.95;100133.00;5069630;28;20219;-71
2020/12/08 03:17:26;;;;;;;42.25;18.30;;;6.70;99.90;;;7.53;83.08;100145.13;5069972;28;20199;-71
2020/12/08 03:19:53;;;;;;;41.67;17.80;;;6.70;99.90;;;7.54;82.96;100150.28;5069311;28;20212;-72
2020/12/08 03:22:20;;;;;;;42.60;18.08;;;6.80;99.90;;;7.54;82.79;100145.06;5087429;28;20192;-72
2020/12/08 03:24:51;;;;;;;38.92;17.05;;;6.80;99.90;;;7.51;82.66;100149.53;5081940;28;20238;-71
2020/12/08 03:27:21;;;;;;;40.38;17.80;;;6.70;99.90;;;7.48;82.86;100147.88;5105859;28;20222;-72
2020/12/08 03:29:50;;;;;;;42.38;18.90;;;6.70;99.90;;;7.48;82.71;100137.47;5076437;28;20208;-72
2020/12/08 03:32:22;;;;;;;48.15;19.35;;;6.70;99.90;;;7.47;82.79;100146.19;5072459;28;20219;-72
2020/12/08 03:34:48;;;;;;;48.53;20.63;;;6.70;99.90;;;7.48;82.98;100144.44;5071053;28;20211;-72
2020/12/08 03:37:15;;;;;;;45.42;18.75;;;6.70;99.90;;;7.48;83.04;100136.63;5071326;28;20191;-70
2020/12/08 03:39:42;;;;;;;47.10;17.85;;;6.70;99.90;;;7.46;82.86;100141.03;5070573;28;20208;-70
2020/12/08 03:42:09;;;;;;;42.10;18.73;;;6.70;99.90;;;7.46;82.76;100143.63;5069828;28;20284;-71
2020/12/08 03:44:39;;;;;;;42.10;18.20;;;6.70;99.90;;;7.42;82.81;100142.91;5069809;28;20223;-70
2020/12/08 03:47:14;;;;;;;41.90;19.02;;;6.70;99.90;;;7.40;82.89;100144.69;5069500;28;20223;-70
2020/12/08 03:49:40;;;;;;;50.08;20.13;;;6.70;99.90;;;7.41;82.78;100143.81;5087177;28;20192;-72
2020/12/08 03:52:08;;;;;;;50.10;19.52;;;6.70;99.90;;;7.43;82.88;100139.38;5081653;28;20611;-71
2020/12/08 03:54:34;;;;;;;42.35;17.33;;;6.70;99.90;;;7.42;82.98;100137.69;5073063;28;20640;-72
2020/12/08 03:57:04;;;;;;;46.47;18.10;;;6.70;99.90;;;7.40;83.00;100136.88;5072977;28;20188;-72
2020/12/08 03:59:32;;;;;;;41.78;18.77;;;6.70;99.90;;;7.38;82.96;100136.06;5089925;28;20550;-70
2020/12/08 04:02:06;;;;;;;45.80;17.95;;;6.70;99.90;;;7.39;82.78;100132.59;5090159;28;20188;-72
2020/12/08 04:04:33;;;;;;;44.58;18.38;;;6.70;99.90;;;7.41;82.83;100130.78;5090386;28;20203;-70
2020/12/08 04:07:00;;;;;;;39.95;17.13;;;6.70;99.90;;;7.42;82.69;100129.88;5090394;28;20540;-70
2020/12/08 04:09:26;;;;;;;46.42;18.00;;;6.70;99.90;;;7.41;83.06;100141.19;5072288;28;20232;-72
2020/12/08 04:11:53;;;;;;;43.10;17.85;;;6.70;99.90;;;7.38;82.82;100136.06;5073025;28;20234;-69
2020/12/08 04:14:20;;;;;;;42.08;18.48;;;6.70;99.90;;;7.37;83.01;100133.53;5073140;28;20212;-69
2020/12/08 04:16:49;;;;;;;42.25;18.38;;;6.70;99.90;;;7.37;82.64;100130.94;5089752;28;20192;-70
2020/12/08 04:19:18;;;;;;;44.85;18.40;;;6.70;99.90;;;7.40;82.94;100133.44;5089948;28;20196;-70
2020/12/08 04:21:46;;;;;;;43.67;18.05;;;6.60;99.90;;;7.41;82.59;100140.34;5073265;28;20212;-70
2020/12/08 04:24:19;;;;;;;41.42;17.52;;;6.70;99.90;;;7.39;82.80;100131.72;5074077;28;20606;-70
2020/12/08 04:26:46;;;;;;;45.53;18.52;;;6.70;99.90;;;7.39;82.70;100132.59;5073154;28;20226;-71
2020/12/08 04:29:17;;;;;;;47.78;19.00;;;6.70;99.90;;;7.39;82.59;100132.59;5089543;28;20235;-71
2020/12/08 04:31:50;;;;;;;40.05;17.33;;;6.70;99.90;;;7.38;82.68;100128.28;5072424;28;20244;-70
2020/12/08 04:34:17;;;;;;;41.80;18.30;;;6.60;99.90;;;7.35;82.56;100135.38;5072434;28;20224;-71
2020/12/08 04:36:43;;;;;;;47.10;19.13;;;6.60;99.90;;;7.34;82.73;100137.09;5074067;28;20207;-70
2020/12/08 04:39:10;;;;;;;43.47;18.00;;;6.60;99.90;;;7.32;82.85;100130.22;5089085;28;20188;-72
2020/12/08 04:41:36;;;;;;;42.30;18.27;;;6.60;99.90;;;7.34;82.71;100137.09;5073869;28;20551;-72
2020/12/08 04:44:04;;;;;;;39.97;17.70;;;6.60;99.90;;;7.35;82.66;100141.41;5072257;28;20198;-71
2020/12/08 04:46:31;;;;;;;43.20;17.70;;;6.60;99.90;;;7.38;82.55;100140.47;5073959;28;20860;-72
2020/12/08 04:48:59;;;;;;;48.08;19.27;;;6.70;99.90;;;7.37;82.52;100150.00;5072252;28;20314;-72
2020/12/08 04:51:26;;;;;;;42.65;17.92;;;6.60;99.90;;;7.37;82.38;100137.00;5073922;28;20200;-72
2020/12/08 04:53:53;;;;;;;44.70;17.88;;;6.60;99.90;;;7.36;82.20;100140.50;5073323;28;20215;-72
2020/12/08 04:56:19;;;;;;;43.53;17.58;;;6.60;99.90;;;7.34;82.31;100134.50;5072012;28;20196;-72
2020/12/08 04:58:45;;;;;;;43.40;18.17;;;6.60;99.90;;;7.31;82.03;100134.63;5089035;28;20192;-72
2020/12/08 05:01:25;;;;;;;44.53;18.13;;;6.60;99.90;;;7.33;82.34;100137.16;5072480;28;20208;-72
2020/12/08 05:04:00;;;;;;;40.22;18.33;;;6.60;99.90;;;7.30;82.22;100143.31;5089030;28;20192;-71
2020/12/08 05:06:28;;;;;;;43.60;18.35;;;6.60;99.90;;;7.29;82.11;100138.16;5073692;28;20202;-72
2020/12/08 05:09:06;;;;;;;45.35;18.90;;;6.60;99.90;;;7.28;82.45;100142.50;5072774;28;20184;-71
2020/12/08 05:11:32;;;;;;;42.38;17.52;;;6.60;99.90;;;7.29;82.09;100141.63;5087907;28;20215;-72
2020/12/08 05:14:01;;;;;;;44.55;18.02;;;6.60;99.90;;;7.30;82.19;100143.31;5073132;28;20200;-72
2020/12/08 05:16:27;;;;;;;43.38;18.00;;;6.60;99.90;;;7.31;82.31;100139.81;5073525;28;20606;-72
2020/12/08 05:19:05;;;;;;;42.65;19.17;;;6.60;99.90;;;7.30;82.08;100150.28;5073265;28;20184;-72
2020/12/08 05:21:32;;;;;;;41.92;18.27;;;6.60;99.90;;;7.30;82.12;100145.91;5073339;28;20204;-71
2020/12/08 05:23:59;;;;;;;39.83;18.13;;;6.60;99.90;;;7.28;82.01;100150.31;5073412;28;20724;-72
2020/12/08 05:26:27;;;;;;;39.53;16.80;;;6.50;99.90;;;7.28;81.93;100163.31;5071662;28;20269;-72
2020/12/08 05:29:00;;;;;;;44.83;17.95;;;6.50;99.90;;;7.25;82.07;100155.63;5072140;28;20193;-72
2020/12/08 05:31:27;;;;;;;42.22;18.10;;;6.50;99.90;;;7.23;82.04;100156.59;5073821;28;20204;-72
2020/12/08 05:33:59;;;;;;;39.13;17.50;;;6.50;99.90;;;7.20;82.25;100154.09;5072335;28;20214;-71
2020/12/08 05:36:28;;;;;;;41.97;17.75;;;6.50;99.90;;;7.20;82.04;100165.31;5071256;28;20655;-72
2020/12/08 05:39:01;;;;;;;40.55;16.73;;;6.50;99.90;;;7.17;82.00;100160.22;5072313;28;20188;-71
2020/12/08 05:41:31;;;;;;;44.83;17.42;;;6.50;99.90;;;7.17;82.11;100168.03;5072307;28;20208;-72
2020/12/08 05:44:05;;;;;;;43.33;18.10;;;6.40;99.90;;;7.19;82.08;100171.44;5072389;28;20191;-71
2020/12/08 05:46:42;;;;;;;42.33;18.05;;;6.50;99.90;;;7.18;82.22;100164.50;5070207;28;20661;-72
2020/12/08 05:49:12;;;;;;;43.30;17.58;;;6.50;99.90;;;7.18;81.91;100164.50;5078968;28;20291;-72
2020/12/08 05:51:43;;;;;;;46.13;17.95;;;6.50;99.90;;;7.20;82.27;100167.94;5087837;28;20640;-72
2020/12/08 05:54:20;;;;;;;40.25;18.13;;;6.40;99.90;;;7.20;82.11;100167.09;5072212;28;20204;-72
2020/12/08 05:56:50;;;;;;;45.70;18.77;;;6.40;99.90;;;7.19;82.02;100165.38;5072034;28;20245;-72
2020/12/08 05:59:27;;;;;;;45.00;18.02;;;6.40;99.90;;;7.15;81.85;100163.78;5071884;28;20558;-72
2020/12/08 06:01:54;;;;;;;43.25;19.25;;;6.50;99.90;;;7.15;81.99;100175.03;5087407;28;20287;-71
2020/12/08 06:04:20;;;;;;;41.35;18.50;;;6.50;99.90;;;7.17;82.04;100162.81;5072639;28;20199;-71
2020/12/08 06:06:51;;;;;;;44.58;19.50;;;6.50;99.90;;;7.16;81.94;100170.69;5087656;28;20192;-72
2020/12/08 06:09:26;;;;;;;42.60;17.95;;;6.40;99.90;;;7.15;81.88;100169.81;5071906;28;20290;-72
2020/12/08 06:11:53;;;;;;;42.47;17.30;;;6.50;99.90;;;7.15;81.75;100167.22;5086582;28;20199;-72
2020/12/08 06:14:34;;;;;;;41.05;17.67;;;6.40;99.90;;;7.14;81.71;100170.75;5072183;28;20208;-72
2020/12/08 06:17:06;;;;;;;43.00;18.67;;;6.50;99.90;;;7.14;81.82;100180.28;5081596;28;20188;-71
2020/12/08 06:19:34;;;;;;;43.75;17.85;;;6.40;99.90;;;7.13;82.06;100184.63;5091903;28;20255;-71
2020/12/08 06:22:09;;;;;;;39.58;17.85;;;6.40;99.90;;;7.11;81.77;100189.06;5097756;28;20287;-72
2020/12/08 06:24:36;;;;;;;44.83;17.65;;;6.40;99.90;;;7.09;81.83;100193.44;5069931;28;20245;-71
2020/12/08 06:27:03;;;;;;;42.80;18.70;;;6.40;99.90;;;7.09;81.91;100192.59;5087170;28;20532;-72
2020/12/08 06:29:29;;;;;;;44.92;17.88;;;6.40;99.90;;;7.10;81.93;100195.13;5071221;28;20220;-71
2020/12/08 06:31:56;;;;;;;44.33;18.67;;;6.40;99.90;;;7.10;81.84;100191.72;5071479;28;20564;-71
2020/12/08 06:34:25;;;;;;;37.60;17.33;;;6.40;99.90;;;7.08;81.74;100196.09;5071442;28;20796;-72
2020/12/08 06:36:52;;;;;;;43.83;18.10;;;6.40;99.90;;;7.04;81.74;100187.53;5071776;28;20314;-72
2020/12/08 06:39:18;;;;;;;47.45;19.40;;;6.40;99.90;;;7.01;81.73;100198.06;5071726;28;20605;-72
2020/12/08 06:41:45;;;;;;;41.45;17.80;;;6.30;99.90;;;7.00;81.93;100204.13;5074424;28;20672;-71
2020/12/08 06:44:21;;;;;;;44.60;19.02;;;6.30;99.90;;;6.99;81.99;100199.84;5072267;28;20184;-71
2020/12/08 06:46:58;;;;;;;43.17;19.20;;;6.30;99.90;;;7.01;82.08;100208.44;5071696;28;20191;-72
2020/12/08 06:49:25;;;;;;;41.78;16.80;;;6.30;99.90;;;7.00;81.87;100205.91;5071311;28;20222;-72
2020/12/08 06:51:55;;;;;;;46.00;18.48;;;6.30;99.90;;;6.99;81.87;100215.44;5069419;28;20210;-72
2020/12/08 06:54:22;;;;;;;40.00;17.95;;;6.30;99.90;;;7.01;82.25;100207.59;5071081;28;20253;-72
2020/12/08 06:56:50;;;;;;;43.67;18.50;;;6.30;99.90;;;7.03;81.93;100216.22;5070901;28;20180;-72
2020/12/08 06:59:22;;;;;;;43.90;17.75;;;6.30;99.90;;;7.01;81.77;100212.78;5071013;28;20656;-72
2020/12/08 07:01:52;;;;;;;45.05;18.50;;;6.30;99.90;;;7.01;81.70;100211.06;5070960;28;20243;-72
2020/12/08 07:04:19;;;;;;;41.10;18.20;;;6.20;99.90;;;7.00;81.75;100208.50;5071201;28;20192;-71
2020/12/08 07:06:46;;;;;;;41.15;17.33;;;6.30;99.90;;;6.99;81.69;100212.00;5070884;28;20192;-72
2020/12/08 07:09:13;;;;;;;47.42;19.05;;;6.20;99.90;;;6.99;81.97;100218.06;5069425;28;20199;-72
2020/12/08 07:11:40;;;;;;;45.97;18.45;;;6.20;99.90;;;6.98;81.82;100221.53;5068676;28;20220;-72
2020/12/08 07:14:07;;;;;;;43.40;18.48;;;6.20;99.90;;;6.99;81.71;100225.84;5086287;28;20227;-72
2020/12/08 07:16:35;;;;;;;50.08;18.70;;;6.20;99.90;;;6.98;81.88;100223.31;5087775;28;20188;-71
2020/12/08 07:19:04;;;;;;;50.28;18.88;;;6.20;99.90;;;6.99;81.72;100223.25;5070536;28;20191;-71
2020/12/08 07:21:30;;;;;;;44.28;18.70;;;6.20;99.90;;;6.97;81.53;100222.44;5070724;28;20283;-72
2020/12/08 07:23:57;;;;;;;40.08;17.73;;;6.20;99.90;;;6.97;81.56;100235.44;5069995;28;20282;-71
2020/12/08 07:26:27;;;;;;;41.42;18.17;;;6.20;99.90;;;6.99;81.90;100240.59;5090313;28;20687;-72
2020/12/08 07:28:55;;;;;;;41.60;18.45;;;6.20;99.90;;;6.96;81.77;100241.56;5074927;28;20180;-71
2020/12/08 07:31:26;;;;;;;46.97;18.35;;;6.20;99.90;;;6.95;81.56;100239.84;5074801;28;20220;-72
2020/12/08 07:33:53;;;;;;;43.95;18.45;;;6.20;99.90;;;6.94;81.73;100237.28;5074911;28;20605;-71
2020/12/08 07:36:25;;;;;;;44.80;17.88;;;6.20;99.90;;;6.94;81.75;100232.94;5074842;28;20176;-71
2020/12/08 07:38:53;;;;;;;39.50;18.55;;;6.20;99.90;;;6.95;81.76;100239.00;5090090;28;20200;-71
2020/12/08 07:41:22;;;;;;;39.97;17.55;;;6.30;99.90;;;6.98;81.61;100234.53;5090162;28;20212;-71
2020/12/08 07:43:49;;;;;;;40.13;17.98;;;6.30;99.90;;;6.99;81.64;100238.00;5074965;28;20279;-71
2020/12/08 07:46:24;;;;;;;41.70;18.70;;;6.30;99.90;;;6.97;81.37;100240.66;5090155;28;20195;-71
2020/12/08 07:49:06;;;;;;;40.33;18.17;;;6.30;99.90;;;6.98;81.15;100238.91;5074446;28;20195;-72
2020/12/08 07:51:35;;;;;;;37.55;16.63;;;6.30;99.90;;;6.97;81.18;100245.84;5074578;28;20208;-72
2020/12/08 07:54:02;;;;;;;50.30;18.92;;;6.30;99.90;;;6.99;81.26;100257.06;5074223;28;20204;-72
2020/12/08 07:56:31;;;;;;;46.90;17.92;;;6.30;99.90;;;6.98;81.00;100255.34;5074092;28;20200;-72
2020/12/08 07:58:59;;;;;;;42.00;17.38;;;6.30;99.90;;;6.97;81.13;100247.59;5074351;28;20212;-71
2020/12/08 08:01:27;;;;;;;39.58;17.98;;;6.30;99.90;;;7.00;80.76;100263.13;5074357;28;20699;-72
2020/12/08 08:03:53;;;;;;;41.40;18.52;;;6.30;99.90;;;7.02;80.90;100267.38;5074248;28;20520;-72
2020/12/08 08:06:24;;;;;;;45.13;18.38;;;6.30;99.90;;;7.06;80.69;100255.97;5074272;28;20579;-72
2020/12/08 08:08:51;;;;;;;41.70;17.35;;;6.40;99.90;;;7.10;80.54;100260.16;5074170;28;20657;-72
2020/12/08 08:11:18;;;;;;;42.15;17.30;;;6.40;99.90;;;7.13;80.32;100260.06;5073871;28;20204;-71
2020/12/08 08:13:46;;;;;;;45.80;17.83;;;6.40;99.90;;;7.13;80.17;100260.06;5074350;28;20184;-71
2020/12/08 08:16:16;;;;;;;39.72;17.95;;;6.50;99.90;;;7.11;79.91;100261.03;5073871;28;20246;-71
2020/12/08 08:18:44;;;;;;;42.03;17.48;;;6.40;99.90;;;7.08;79.51;100261.97;5089386;28;20541;-70
2020/12/08 08:21:13;;;;;;;39.97;17.63;;;6.40;99.90;;;7.08;79.86;100263.72;5073946;28;20682;-72
2020/12/08 08:23:40;;;;;;;45.67;18.10;;;6.40;99.90;;;7.09;79.85;100266.28;5073933;28;20259;-72
2020/12/08 08:26:07;;;;;;;41.47;17.40;;;6.40;99.90;;;7.11;79.84;100277.50;5072570;28;20196;-72
2020/12/08 08:28:34;;;;;;;44.40;17.10;;;6.40;99.90;;;7.11;79.81;100281.84;5072299;28;20180;-70
2020/12/08 08:31:01;;;;;;;43.58;17.98;;;6.40;99.90;;;7.10;79.80;100280.97;5074028;28;20253;-71
2020/12/08 08:33:28;;;;;;;41.95;16.77;;;6.40;99.90;;;7.11;79.44;100284.44;5073879;28;20184;-70
2020/12/08 08:35:55;;;;;;;43.92;18.02;;;6.40;99.90;;;7.11;79.31;100287.91;5073507;28;20550;-70
2020/12/08 08:38:26;;;;;;;46.47;18.58;;;6.40;99.90;;;7.12;79.30;100278.31;5073531;28;20188;-71
2020/12/08 08:40:53;;;;;;;41.92;17.85;;;6.40;99.90;;;7.12;79.25;100286.13;5073571;28;20204;-70
2020/12/08 08:43:19;;;;;;;43.28;18.02;;;6.40;99.90;;;7.09;79.14;100276.69;5073679;28;20219;-72
2020/12/08 08:45:46;;;;;;;39.85;16.98;;;6.40;99.90;;;7.06;78.97;100278.53;5073641;28;20180;-72
2020/12/08 08:48:12;;;;;;;46.78;18.83;;;6.30;99.90;;;7.01;78.99;100283.03;5073414;28;20200;-72
2020/12/08 08:50:38;;;;;;;42.38;17.80;;;6.30;99.90;;;6.97;79.21;100277.06;5068307;28;20228;-70
2020/12/08 08:53:05;;;;;;;42.13;17.98;;;6.20;99.90;;;6.97;79.51;100277.06;5072563;28;20683;-69
2020/12/08 08:55:31;;;;;;;40.95;17.52;;;6.20;99.90;;;6.99;79.57;100275.25;5073371;28;20216;-71
2020/12/08 08:57:58;;;;;;;54.03;18.85;;;6.20;99.90;;;6.98;79.15;100276.16;5073223;28;20314;-72
2020/12/08 09:00:24;;;;;;;37.28;16.95;;;6.20;99.90;;;6.92;79.03;100275.47;5075746;28;20212;-72
2020/12/08 09:02:50;;;;;;;39.50;17.15;;;6.20;99.90;;;6.88;79.16;100277.31;5073930;28;20590;-72
2020/12/08 09:05:16;;;;;;;44.63;19.80;;;6.10;99.90;;;6.81;79.32;100278.41;5073974;28;20192;-72
2020/12/08 09:07:43;;;;;;;42.35;18.30;;;6.10;99.90;;;6.77;79.12;100282.00;5084850;28;20673;-72
2020/12/08 09:10:10;;;;;;;46.45;18.10;;;6.00;99.90;;;6.76;79.20;100275.09;5088412;28;20208;-71
2020/12/08 09:12:36;;;;;;;40.83;17.65;;;6.00;99.90;;;6.75;79.41;100277.75;5088908;28;20200;-72
2020/12/08 09:15:05;;;;;;;45.10;18.42;;;6.00;99.90;;;6.73;79.19;100284.75;5072277;28;20204;-72
2020/12/08 09:17:31;;;;;;;42.60;17.90;;;6.00;99.90;;;6.68;79.14;100266.66;5072970;28;20267;-73
2020/12/08 09:19:58;;;;;;;40.70;17.60;;;5.90;99.90;;;6.68;79.35;100277.06;5071492;28;20692;-71
2020/12/08 09:22:24;;;;;;;49.08;18.73;;;5.90;99.90;;;6.69;79.46;100288.31;5071632;28;20192;-71
2020/12/08 09:24:50;;;;;;;45.22;18.75;;;5.90;99.90;;;6.72;79.74;100286.47;5071789;28;20199;-72
2020/12/08 09:27:18;;;;;;;44.60;18.80;;;5.90;99.90;;;6.73;79.35;100287.34;5073110;28;20192;-71
2020/12/08 09:29:45;;;;;;;40.95;17.77;;;6.00;99.90;;;6.71;79.54;100287.38;5072602;28;20648;-72
2020/12/08 09:32:12;;;;;;;45.83;17.42;;;6.00;99.90;;;6.72;79.50;100288.22;5072852;28;20180;-71
2020/12/08 09:34:41;;;;;;;42.55;18.15;;;6.00;99.90;;;6.72;79.41;100283.00;5072713;28;20714;-72
2020/12/08 09:37:07;;;;;;;43.28;17.45;;;6.00;99.90;;;6.73;79.12;100285.56;5071873;28;20195;-72
2020/12/08 09:39:35;;;;;;;41.15;18.25;;;6.00;99.90;;;6.74;79.36;100291.63;5072259;28;20192;-72
2020/12/08 09:42:01;;;;;;;42.85;18.33;;;6.00;99.90;;;6.72;79.39;100294.28;5087909;28;20287;-72
2020/12/08 09:44:28;;;;;;;42.70;18.52;;;6.00;99.90;;;6.72;79.15;100298.63;5072714;28;20188;-72
2020/12/08 09:46:55;;;;;;;43.65;17.45;;;6.00;99.90;;;6.69;79.16;100285.72;5071934;28;20192;-72
2020/12/08 09:49:21;;;;;;;44.33;18.77;;;6.00;99.90;;;6.66;79.41;100284.06;5072094;28;20241;-72
2020/12/08 09:51:48;;;;;;;46.40;18.30;;;5.90;99.90;;;6.68;79.23;100287.44;5072273;28;20208;-71
2020/12/08 09:54:14;;;;;;;41.10;18.48;;;6.00;99.90;;;6.70;79.18;100295.22;5072041;28;20184;-71
2020/12/08 09:56:45;;;;;;;41.35;18.10;;;6.00;99.90;;;6.74;79.28;100291.63;5087346;28;20196;-72
2020/12/08 09:59:11;;;;;;;36.53;17.25;;;6.00;99.90;;;6.77;79.13;100297.59;5087560;28;20628;-72
2020/12/08 10:01:38;;;;;;;41.08;18.08;;;6.00;99.90;;;6.80;78.95;100291.47;5072073;28;20215;-72
2020/12/08 10:04:05;;;;;;;45.85;19.00;;;6.10;99.90;;;6.84;78.65;100293.06;5071757;28;20189;-70
2020/12/08 10:06:32;;;;;;;39.08;17.98;;;6.10;99.90;;;6.85;78.76;100287.81;5071943;28;20194;-72
2020/12/08 10:08:58;;;;;;;45.88;17.73;;;6.10;99.90;;;6.85;78.37;100287.00;5070046;28;20239;-71
2020/12/08 10:11:25;;;;;;;38.53;18.48;;;6.10;99.90;;;6.86;78.67;100292.13;5071540;28;20223;-71
2020/12/08 10:13:52;;;;;;;46.25;19.08;;;6.10;99.90;;;6.89;78.57;100292.03;5071100;28;20575;-70
2020/12/08 10:16:20;;;;;;;39.38;16.73;;;6.20;99.90;;;6.93;78.64;100293.63;5070291;28;20219;-70